Terminal Aerodrome Forecast
Issued by NWS Twin Cities, MN

Home | Current Version | Previous Version | Graphics & Text | Print | Product List | Glossary On
Versions: 1 2 3 4 5 6 7 8 9 10 11 12 13 14 15 16 17 18 19 20 21 22 23 24 25 26
100
FTUS43 KMPX 110245 AAA
TAFMSP
TAF AMD
KMSP 110245Z 1103/1206 35004KT P6SM OVC100
     FM111600 25005KT P6SM BKN120
     FM112000 22005KT P6SM OVC050=

USA.gov is the U.S. government's official web portal to all federal, state and local government web resources and services.